Time;durP1;ratioP1;P1;durP2;ratioP2;P2;SDS_P1;SDS_P2;PMS_P1;PMS_P2;Temp;Humidity;BMP_temperature;BMP_pressure;BME280_temperature;BME280_humidity;BME280_pressure;Samples;Min_cycle;Max_cycle;Signal;HPM_P1;HPM_P2
2023/06/06 00:00:13;;;;;;;3.83;2.60;;;21.10;49.10;;;;;;5093890;28;20056;-74
2023/06/06 00:02:43;;;;;;;3.65;2.55;;;21.00;49.20;;;;;;5096155;28;20028;-74
2023/06/06 00:05:17;;;;;;;3.22;2.40;;;21.00;49.30;;;;;;5077541;28;20028;-74
2023/06/06 00:07:44;;;;;;;3.47;2.50;;;20.90;49.30;;;;;;5094707;28;20071;-74
2023/06/06 00:10:15;;;;;;;3.15;2.42;;;20.90;49.40;;;;;;5093915;28;20024;-75
2023/06/06 00:12:41;;;;;;;3.33;2.45;;;20.80;49.40;;;;;;5095012;28;20153;-73
2023/06/06 00:15:08;;;;;;;3.38;2.63;;;20.80;49.40;;;;;;5093842;28;20177;-74
2023/06/06 00:17:35;;;;;;;3.22;2.40;;;20.70;49.50;;;;;;5094961;28;20036;-75
2023/06/06 00:20:08;;;;;;;3.97;2.70;;;20.70;49.50;;;;;;5077297;28;20433;-74
2023/06/06 00:22:38;;;;;;;3.83;2.50;;;20.70;50.20;;;;;;5094046;28;20043;-74
2023/06/06 00:25:05;;;;;;;3.95;2.53;;;20.60;49.60;;;;;;5076665;28;20048;-74
2023/06/06 00:27:32;;;;;;;3.75;2.88;;;20.60;49.60;;;;;;5093377;28;20036;-74
2023/06/06 00:29:58;;;;;;;3.83;2.92;;;20.50;49.70;;;;;;5060023;28;20564;-74
2023/06/06 00:32:23;;;;;;;3.00;2.28;;;20.50;49.70;;;;;;5077201;28;20111;-76
2023/06/06 00:34:49;;;;;;;3.17;2.63;;;20.40;50.40;;;;;;5076258;28;20398;-74
2023/06/06 00:37:15;;;;;;;3.97;2.67;;;20.40;49.80;;;;;;5094307;28;20048;-73
2023/06/06 00:39:41;;;;;;;4.57;2.90;;;20.30;49.80;;;;;;5094344;28;20082;-73
2023/06/06 00:42:07;;;;;;;3.00;2.40;;;20.30;49.90;;;;;;5094095;28;20055;-73
2023/06/06 00:44:33;;;;;;;3.75;2.67;;;20.30;49.90;;;;;;5076969;28;20412;-75
2023/06/06 00:46:59;;;;;;;3.20;2.55;;;20.20;49.90;;;;;;5075891;28;20077;-74
2023/06/06 00:49:26;;;;;;;4.30;2.67;;;20.20;49.90;;;;;;5093483;28;20032;-74
2023/06/06 00:51:52;;;;;;;3.55;2.42;;;20.10;49.90;;;;;;5076530;28;20039;-74
2023/06/06 00:54:18;;;;;;;3.85;2.67;;;20.10;50.00;;;;;;5076324;28;20043;-73
2023/06/06 00:56:47;;;;;;;4.32;2.63;;;20.00;50.10;;;;;;5075930;28;20040;-77
2023/06/06 00:59:14;;;;;;;4.00;2.63;;;20.00;50.10;;;;;;5092821;28;20028;-74
2023/06/06 01:01:41;;;;;;;3.03;2.40;;;19.90;50.10;;;;;;5075777;28;20031;-74
2023/06/06 01:04:08;;;;;;;3.25;2.45;;;19.90;50.10;;;;;;5076498;28;20032;-73
2023/06/06 01:06:37;;;;;;;3.78;2.78;;;19.90;50.20;;;;;;5092849;28;20039;-74
2023/06/06 01:09:08;;;;;;;3.13;2.42;;;19.80;50.10;;;;;;5092524;28;20035;-73
2023/06/06 01:11:51;;;;;;;3.80;2.67;;;19.80;50.30;;;;;;5093238;28;20415;-74
2023/06/06 01:14:24;;;;;;;4.20;2.90;;;19.70;50.30;;;;;;5094288;28;20028;-75
2023/06/06 01:16:57;;;;;;;3.20;2.22;;;19.70;50.30;;;;;;5093698;28;20036;-73
2023/06/06 01:19:29;;;;;;;3.83;2.40;;;19.60;50.30;;;;;;5076016;28;20507;-76
2023/06/06 01:21:56;;;;;;;3.25;2.45;;;19.60;50.30;;;;;;5075499;28;20074;-74
2023/06/06 01:24:24;;;;;;;2.80;2.35;;;19.50;50.40;;;;;;5076480;28;20028;-74
2023/06/06 01:26:51;;;;;;;3.50;2.50;;;19.50;50.50;;;;;;5075788;28;20040;-75
2023/06/06 01:29:17;;;;;;;3.60;2.67;;;19.40;50.50;;;;;;5092993;28;20475;-75
2023/06/06 01:32:01;;;;;;;3.25;2.40;;;19.40;50.60;;;;;;5058935;28;20068;-74
2023/06/06 01:34:33;;;;;;;2.92;2.15;;;19.40;50.70;;;;;;5092217;28;20035;-73
2023/06/06 01:37:28;;;;;;;3.40;2.42;;;19.30;50.60;;;;;;5092111;28;20052;-74
2023/06/06 01:39:57;;;;;;;3.33;2.38;;;19.30;50.70;;;;;;5092909;28;20046;-73
2023/06/06 01:42:24;;;;;;;3.58;2.45;;;19.20;50.70;;;;;;5092063;28;20036;-75
2023/06/06 01:44:53;;;;;;;3.10;2.42;;;19.20;50.80;;;;;;5042103;28;20024;-74
2023/06/06 01:47:20;;;;;;;3.35;2.33;;;19.10;50.80;;;;;;5075159;28;20141;-73
2023/06/06 01:49:46;;;;;;;3.35;2.30;;;19.10;50.90;;;;;;5075962;28;20024;-75
2023/06/06 01:52:12;;;;;;;3.58;2.55;;;19.00;50.80;;;;;;5091975;28;20072;-75
2023/06/06 01:54:40;;;;;;;3.75;2.42;;;19.00;50.90;;;;;;5058639;28;20035;-74
2023/06/06 01:57:07;;;;;;;3.72;2.50;;;19.00;51.00;;;;;;5092499;28;20043;-74
2023/06/06 01:59:33;;;;;;;3.78;2.55;;;18.90;51.00;;;;;;5091585;28;20042;-74
2023/06/06 02:02:00;;;;;;;3.75;2.35;;;18.90;51.00;;;;;;5092443;28;20077;-73
2023/06/06 02:04:26;;;;;;;3.03;2.30;;;18.80;51.00;;;;;;5075337;28;20039;-74
2023/06/06 02:06:51;;;;;;;3.67;2.38;;;18.80;51.00;;;;;;5091878;28;20036;-74
2023/06/06 02:09:18;;;;;;;3.33;2.50;;;18.80;51.10;;;;;;5074717;28;20115;-74
2023/06/06 02:11:43;;;;;;;3.53;2.63;;;18.70;51.10;;;;;;5074949;28;20111;-73
2023/06/06 02:14:09;;;;;;;3.47;2.50;;;18.70;51.10;;;;;;5058722;28;20036;-73
2023/06/06 02:16:36;;;;;;;3.78;2.70;;;18.70;51.30;;;;;;5093013;28;20028;-75
2023/06/06 02:19:02;;;;;;;4.47;2.58;;;18.60;51.20;;;;;;5074996;28;20059;-74
2023/06/06 02:21:28;;;;;;;3.60;2.53;;;18.60;51.20;;;;;;5074839;28;20106;-76
2023/06/06 02:23:54;;;;;;;3.65;2.45;;;18.50;51.30;;;;;;5092174;28;20038;-73
2023/06/06 02:26:21;;;;;;;3.15;2.45;;;18.50;51.40;;;;;;5092261;28;20110;-76
2023/06/06 02:28:47;;;;;;;3.40;2.42;;;18.50;52.10;;;;;;5092435;28;20416;-73
2023/06/06 02:31:14;;;;;;;3.40;2.47;;;18.40;51.40;;;;;;5058037;28;20037;-73
2023/06/06 02:33:40;;;;;;;3.92;2.63;;;18.40;51.50;;;;;;5074468;28;20029;-73
2023/06/06 02:36:06;;;;;;;2.83;2.33;;;18.40;51.50;;;;;;5074616;28;20067;-74
2023/06/06 02:38:32;;;;;;;3.58;2.47;;;18.30;51.50;;;;;;5074931;28;20473;-73
2023/06/06 02:40:58;;;;;;;3.95;2.38;;;18.30;51.60;;;;;;5091681;28;20032;-73
2023/06/06 02:43:24;;;;;;;3.90;2.60;;;18.30;51.60;;;;;;5075398;28;20028;-74
2023/06/06 02:45:51;;;;;;;3.35;2.38;;;18.20;51.60;;;;;;5074955;28;20024;-74
2023/06/06 02:48:17;;;;;;;3.78;2.40;;;18.20;51.70;;;;;;5091894;28;20036;-75
2023/06/06 02:50:42;;;;;;;3.65;2.50;;;18.20;51.70;;;;;;5091875;28;20028;-75
2023/06/06 02:53:08;;;;;;;3.38;2.50;;;18.20;51.70;;;;;;5074533;28;20032;-73
2023/06/06 02:55:34;;;;;;;3.47;2.25;;;18.10;51.80;;;;;;5092735;28;20050;-74
2023/06/06 02:57:59;;;;;;;3.05;2.33;;;18.10;51.80;;;;;;5057940;28;20033;-73
2023/06/06 03:00:26;;;;;;;3.70;2.75;;;18.10;51.90;;;;;;5074781;28;20357;-74
2023/06/06 03:02:52;;;;;;;3.20;2.50;;;18.00;52.50;;;;;;5057757;28;20036;-74
2023/06/06 03:05:17;;;;;;;3.00;2.35;;;18.00;51.90;;;;;;5093077;28;20035;-74
2023/06/06 03:07:43;;;;;;;3.65;2.53;;;18.00;51.90;;;;;;5074539;28;20039;-74
2023/06/06 03:10:09;;;;;;;4.45;2.92;;;17.90;51.90;;;;;;5057737;28;20070;-74
2023/06/06 03:12:41;;;;;;;3.70;2.38;;;17.90;52.00;;;;;;5078256;28;20075;-75
2023/06/06 03:15:08;;;;;;;3.78;2.50;;;17.90;52.10;;;;;;5078203;28;20029;-73
2023/06/06 03:17:40;;;;;;;3.97;2.63;;;17.90;52.10;;;;;;5079055;28;20043;-74
2023/06/06 03:20:07;;;;;;;3.40;2.53;;;17.80;52.10;;;;;;5094928;28;20036;-75
2023/06/06 03:22:35;;;;;;;4.07;2.50;;;17.80;52.20;;;;;;5094651;28;20028;-75
2023/06/06 03:25:02;;;;;;;3.35;2.40;;;17.80;52.20;;;;;;5095375;28;20028;-74
2023/06/06 03:27:28;;;;;;;3.75;2.78;;;17.80;52.30;;;;;;5061714;28;20039;-76
2023/06/06 03:29:54;;;;;;;4.07;2.67;;;17.70;52.30;;;;;;5077910;28;20036;-75
2023/06/06 03:32:23;;;;;;;3.75;2.70;;;17.70;52.30;;;;;;5078169;28;20063;-74
2023/06/06 03:34:51;;;;;;;4.15;2.80;;;17.60;52.40;;;;;;5095728;28;20055;-74
2023/06/06 03:37:17;;;;;;;4.28;2.67;;;17.60;52.40;;;;;;5094110;28;20063;-75
2023/06/06 03:39:43;;;;;;;3.42;2.53;;;17.60;52.40;;;;;;5077560;28;20371;-74
2023/06/06 03:42:10;;;;;;;3.90;2.78;;;17.60;52.50;;;;;;5094013;28;20036;-73
2023/06/06 03:44:36;;;;;;;3.58;2.70;;;17.60;52.50;;;;;;5060892;28;20070;-74
2023/06/06 03:47:02;;;;;;;3.70;2.67;;;17.50;52.50;;;;;;5077365;28;20044;-74
2023/06/06 03:49:28;;;;;;;4.18;3.08;;;17.50;52.60;;;;;;5094181;28;20032;-74
2023/06/06 03:51:54;;;;;;;3.65;2.60;;;17.50;52.60;;;;;;5077002;28;20174;-73
2023/06/06 03:54:20;;;;;;;4.40;2.90;;;17.40;52.60;;;;;;5077640;28;20060;-74
2023/06/06 03:56:46;;;;;;;4.45;2.95;;;17.40;52.60;;;;;;5095686;28;20488;-73
2023/06/06 03:59:12;;;;;;;3.85;2.83;;;17.40;52.70;;;;;;5077336;28;20039;-73
2023/06/06 04:01:40;;;;;;;4.15;2.70;;;17.40;52.70;;;;;;5093896;28;20035;-74
2023/06/06 04:04:08;;;;;;;3.80;2.50;;;17.30;52.70;;;;;;5094416;28;20360;-73
2023/06/06 04:06:35;;;;;;;4.20;2.70;;;17.30;52.80;;;;;;5077076;28;20054;-73
2023/06/06 04:09:01;;;;;;;3.50;2.55;;;17.30;52.80;;;;;;5060253;28;20036;-75
2023/06/06 04:11:27;;;;;;;3.78;2.88;;;17.30;52.80;;;;;;5093653;28;20016;-74
2023/06/06 04:13:53;;;;;;;4.25;2.72;;;17.30;52.90;;;;;;5060316;28;20048;-76
2023/06/06 04:16:19;;;;;;;3.70;2.63;;;17.20;52.90;;;;;;5094177;28;20040;-73
2023/06/06 04:18:44;;;;;;;4.78;2.90;;;17.20;53.00;;;;;;5093783;28;20087;-75
2023/06/06 04:21:10;;;;;;;3.72;2.67;;;17.20;53.00;;;;;;5094958;28;20043;-74
2023/06/06 04:23:36;;;;;;;3.95;2.85;;;17.20;53.00;;;;;;5043338;28;20036;-74
2023/06/06 04:26:03;;;;;;;3.47;2.55;;;17.20;53.10;;;;;;5093837;28;20032;-76
2023/06/06 04:28:31;;;;;;;4.18;2.65;;;17.10;53.10;;;;;;5093511;28;20038;-75
2023/06/06 04:30:57;;;;;;;3.95;2.92;;;17.10;53.10;;;;;;5076992;28;20028;-76
2023/06/06 04:33:23;;;;;;;4.13;2.70;;;17.10;53.10;;;;;;5093394;28;20039;-76
2023/06/06 04:35:51;;;;;;;3.63;2.40;;;17.10;53.20;;;;;;5076713;28;20483;-76
2023/06/06 04:38:20;;;;;;;3.63;2.47;;;17.10;53.20;;;;;;5076015;28;20052;-76
2023/06/06 04:40:50;;;;;;;2.85;2.35;;;17.10;53.20;;;;;;5060712;28;20043;-79
2023/06/06 04:43:19;;;;;;;3.88;2.70;;;17.00;53.20;;;;;;5060571;28;20575;-75
2023/06/06 04:45:45;;;;;;;4.20;2.95;;;17.00;53.30;;;;;;5092833;28;20028;-77
2023/06/06 04:48:12;;;;;;;4.13;2.90;;;17.00;53.20;;;;;;5076221;28;20038;-77
2023/06/06 04:50:38;;;;;;;3.25;2.47;;;17.00;53.30;;;;;;5076159;28;20413;-80
2023/06/06 04:53:04;;;;;;;3.20;2.35;;;17.00;53.30;;;;;;5093763;28;20083;-77
2023/06/06 04:55:30;;;;;;;3.58;2.65;;;17.00;53.40;;;;;;5076104;28;20024;-77
2023/06/06 04:57:58;;;;;;;4.03;2.72;;;17.00;53.40;;;;;;5094021;28;20043;-75
2023/06/06 05:00:25;;;;;;;3.65;2.42;;;16.90;53.40;;;;;;5093054;28;20080;-77
2023/06/06 05:02:51;;;;;;;3.28;2.30;;;17.00;53.50;;;;;;5075673;28;20427;-76
2023/06/06 05:05:18;;;;;;;4.07;2.65;;;16.90;53.40;;;;;;5092903;28;20465;-76
2023/06/06 05:07:44;;;;;;;3.42;2.45;;;16.90;53.50;;;;;;5094557;28;20035;-78
2023/06/06 05:10:09;;;;;;;3.92;2.90;;;16.90;53.50;;;;;;5094856;28;20028;-77
2023/06/06 05:12:35;;;;;;;3.45;2.67;;;16.90;53.50;;;;;;5092817;28;20039;-78
2023/06/06 05:15:02;;;;;;;4.95;2.72;;;16.90;53.60;;;;;;5075863;28;20075;-77
2023/06/06 05:17:28;;;;;;;4.32;2.80;;;16.90;53.60;;;;;;5093729;28;20028;-75
2023/06/06 05:19:54;;;;;;;3.53;2.83;;;16.90;53.60;;;;;;5092284;28;20034;-75
2023/06/06 05:22:20;;;;;;;4.13;2.63;;;16.90;53.70;;;;;;5075328;28;20073;-77
2023/06/06 05:24:45;;;;;;;4.03;2.63;;;16.90;54.30;;;;;;5093600;28;20025;-77
2023/06/06 05:27:11;;;;;;;3.65;2.80;;;16.90;53.70;;;;;;5075978;28;20036;-78
2023/06/06 05:29:37;;;;;;;3.72;2.45;;;16.90;53.80;;;;;;5092870;28;20036;-78
2023/06/06 05:32:04;;;;;;;3.20;2.35;;;16.90;53.80;;;;;;5092442;28;20036;-78
2023/06/06 05:34:30;;;;;;;3.65;2.67;;;16.90;53.80;;;;;;5090717;28;20032;-76
2023/06/06 05:36:56;;;;;;;4.05;2.70;;;16.90;53.80;;;;;;5092074;28;20484;-77
2023/06/06 05:39:24;;;;;;;4.70;2.47;;;16.90;53.80;;;;;;5092459;28;20051;-75
2023/06/06 05:41:54;;;;;;;3.50;2.65;;;16.90;53.90;;;;;;5092390;28;20020;-75
2023/06/06 05:44:21;;;;;;;4.57;2.78;;;16.90;53.90;;;;;;5092923;28;20352;-76
2023/06/06 05:46:48;;;;;;;3.35;2.45;;;16.90;53.90;;;;;;5094085;28;20042;-75
2023/06/06 05:49:14;;;;;;;5.18;2.65;;;16.90;53.90;;;;;;5059828;28;20081;-76
2023/06/06 05:51:40;;;;;;;3.42;2.38;;;16.90;53.90;;;;;;5093146;28;20035;-75
2023/06/06 05:54:14;;;;;;;4.13;2.70;;;16.90;53.90;;;;;;5092882;28;20469;-76
2023/06/06 05:56:40;;;;;;;4.43;2.42;;;16.90;54.00;;;;;;5075872;28;20059;-75
2023/06/06 05:59:05;;;;;;;3.90;2.80;;;16.90;53.90;;;;;;5075139;28;20036;-76
2023/06/06 06:01:31;;;;;;;4.00;2.70;;;16.90;53.90;;;;;;5091583;28;20098;-76
2023/06/06 06:03:57;;;;;;;3.65;2.70;;;16.90;54.00;;;;;;5075188;28;20028;-76
2023/06/06 06:06:23;;;;;;;3.72;2.70;;;16.90;54.00;;;;;;5075239;28;20131;-75
2023/06/06 06:08:50;;;;;;;4.75;2.75;;;16.90;54.00;;;;;;5075904;28;20545;-75
2023/06/06 06:11:15;;;;;;;3.45;2.55;;;16.90;54.10;;;;;;5092898;28;20028;-75
2023/06/06 06:13:41;;;;;;;3.58;2.42;;;16.90;54.10;;;;;;5075413;28;20111;-75
2023/06/06 06:16:07;;;;;;;3.83;2.40;;;16.90;54.20;;;;;;5091915;28;20435;-78
2023/06/06 06:18:33;;;;;;;3.58;2.33;;;16.90;54.20;;;;;;5093772;28;20040;-75
2023/06/06 06:20:59;;;;;;;3.75;2.63;;;16.90;54.20;;;;;;5074950;28;20029;-76
2023/06/06 06:23:25;;;;;;;3.67;2.88;;;16.90;54.20;;;;;;5074963;28;20064;-75
2023/06/06 06:25:51;;;;;;;4.25;2.80;;;16.90;54.20;;;;;;5058611;28;20495;-75
2023/06/06 06:28:21;;;;;;;4.57;2.80;;;16.90;54.20;;;;;;5074861;28;20028;-75
2023/06/06 06:30:47;;;;;;;3.92;2.50;;;17.00;54.40;;;;;;5092036;28;20035;-76
2023/06/06 06:33:14;;;;;;;3.97;2.80;;;16.90;54.20;;;;;;5074795;28;20028;-77
2023/06/06 06:35:41;;;;;;;4.00;2.60;;;16.90;54.30;;;;;;5091816;28;20432;-75
2023/06/06 06:38:07;;;;;;;4.07;2.70;;;17.00;54.40;;;;;;5090954;28;20119;-75
2023/06/06 06:40:33;;;;;;;3.70;2.63;;;17.00;55.00;;;;;;5075360;28;20491;-75
2023/06/06 06:42:58;;;;;;;3.95;2.60;;;17.00;54.30;;;;;;5092438;28;20032;-75
2023/06/06 06:45:34;;;;;;;5.35;2.70;;;17.00;54.30;;;;;;5077440;28;20058;-75
2023/06/06 06:48:01;;;;;;;3.83;2.80;;;17.00;54.30;;;;;;5096785;28;20055;-75
2023/06/06 06:50:27;;;;;;;4.40;2.53;;;17.00;54.40;;;;;;5095383;28;20048;-75
2023/06/06 06:52:53;;;;;;;3.78;2.63;;;17.10;54.40;;;;;;5096745;28;20024;-75
2023/06/06 06:55:19;;;;;;;4.10;2.97;;;17.00;54.40;;;;;;5095572;28;20028;-75
2023/06/06 06:57:45;;;;;;;4.07;2.50;;;17.10;54.50;;;;;;5096995;28;20377;-75
2023/06/06 07:00:17;;;;;;;4.20;2.72;;;17.10;54.50;;;;;;5095067;28;20032;-75
2023/06/06 07:02:44;;;;;;;3.58;2.47;;;17.10;54.60;;;;;;5079328;28;20028;-75
2023/06/06 07:05:15;;;;;;;3.60;2.63;;;17.10;54.60;;;;;;5078360;28;20039;-76
2023/06/06 07:07:46;;;;;;;5.00;2.88;;;17.10;54.50;;;;;;5095291;28;20039;-75
2023/06/06 07:10:14;;;;;;;3.67;2.50;;;17.10;54.60;;;;;;5095046;28;20028;-76
2023/06/06 07:12:40;;;;;;;4.10;2.33;;;17.10;54.60;;;;;;5062260;28;20115;-76
2023/06/06 07:15:08;;;;;;;4.90;2.78;;;17.20;54.70;;;;;;5095001;28;20111;-76
2023/06/06 07:17:34;;;;;;;3.15;2.53;;;17.20;54.70;;;;;;5078796;28;20044;-75
2023/06/06 07:20:00;;;;;;;4.68;3.10;;;17.20;54.70;;;;;;5095890;28;20088;-76
2023/06/06 07:22:26;;;;;;;4.10;2.60;;;17.30;54.80;;;;;;5077739;28;20029;-75
2023/06/06 07:24:51;;;;;;;5.03;2.60;;;17.30;54.70;;;;;;5096137;28;20040;-75
2023/06/06 07:27:18;;;;;;;3.85;2.58;;;17.30;54.70;;;;;;5095093;28;20024;-76
2023/06/06 07:29:44;;;;;;;3.35;2.42;;;17.40;54.70;;;;;;5095056;28;20504;-77
2023/06/06 07:32:10;;;;;;;3.45;2.58;;;17.40;54.60;;;;;;5094444;28;20493;-76
2023/06/06 07:34:35;;;;;;;4.10;2.70;;;17.40;54.50;;;;;;5077514;28;20056;-77
2023/06/06 07:37:02;;;;;;;4.47;2.78;;;17.50;54.50;;;;;;5094301;28;20056;-76
2023/06/06 07:39:27;;;;;;;4.05;2.60;;;17.50;54.50;;;;;;5095701;28;20024;-75
2023/06/06 07:41:53;;;;;;;3.75;2.60;;;17.60;54.40;;;;;;5094611;28;20036;-76
2023/06/06 07:44:20;;;;;;;3.97;2.70;;;17.70;54.40;;;;;;5094192;28;20038;-76
2023/06/06 07:46:46;;;;;;;4.20;2.60;;;17.70;54.30;;;;;;5078154;28;20361;-76
2023/06/06 07:49:11;;;;;;;3.60;2.40;;;17.80;54.20;;;;;;5077377;28;20034;-76
2023/06/06 07:51:38;;;;;;;3.38;2.50;;;17.80;54.10;;;;;;5094002;28;20080;-76
2023/06/06 07:54:04;;;;;;;3.90;2.65;;;17.90;54.10;;;;;;5060958;28;20503;-77
2023/06/06 07:56:30;;;;;;;2.88;2.33;;;18.00;54.10;;;;;;5093549;28;20032;-77
2023/06/06 07:58:57;;;;;;;3.22;2.58;;;18.00;54.00;;;;;;5077173;28;20054;-76
2023/06/06 08:01:25;;;;;;;2.92;2.20;;;18.10;54.00;;;;;;5061054;28;20103;-76
2023/06/06 08:03:54;;;;;;;3.65;2.25;;;18.20;53.90;;;;;;5094136;28;20051;-77
2023/06/06 08:06:23;;;;;;;3.63;2.55;;;18.20;53.80;;;;;;5095298;28;20104;-76
2023/06/06 08:08:49;;;;;;;3.35;2.40;;;18.30;53.80;;;;;;5094932;28;20032;-76
2023/06/06 08:11:15;;;;;;;4.15;2.42;;;18.40;53.70;;;;;;5093928;28;20036;-75
2023/06/06 08:13:41;;;;;;;3.63;2.40;;;18.40;53.60;;;;;;5060601;28;20020;-74
2023/06/06 08:16:08;;;;;;;3.53;2.33;;;18.60;53.60;;;;;;5094659;28;20047;-77
2023/06/06 08:18:34;;;;;;;3.38;2.13;;;18.60;53.50;;;;;;5060518;28;20119;-77
2023/06/06 08:21:00;;;;;;;3.83;2.33;;;18.70;53.50;;;;;;5076903;28;20036;-76
2023/06/06 08:23:25;;;;;;;3.70;2.60;;;18.80;53.40;;;;;;5076827;28;20385;-76
2023/06/06 08:25:55;;;;;;;4.32;2.47;;;18.90;53.30;;;;;;5093375;28;20033;-76
2023/06/06 08:28:25;;;;;;;3.53;2.65;;;18.90;53.30;;;;;;5093792;28;20139;-74
2023/06/06 08:30:52;;;;;;;3.88;2.30;;;19.00;53.30;;;;;;5093451;28;20429;-74
2023/06/06 08:33:19;;;;;;;3.53;2.30;;;19.10;53.20;;;;;;5076710;28;20020;-73
2023/06/06 08:35:46;;;;;;;4.50;2.20;;;19.20;53.10;;;;;;5093120;28;20053;-74
2023/06/06 08:38:11;;;;;;;3.67;2.25;;;19.30;53.10;;;;;;5092900;28;20048;-76
2023/06/06 08:40:39;;;;;;;4.43;2.50;;;19.40;53.00;;;;;;5095000;28;20422;-76
2023/06/06 08:43:06;;;;;;;3.72;2.28;;;19.50;53.00;;;;;;5093207;28;20469;-76
2023/06/06 08:45:32;;;;;;;3.40;2.35;;;19.50;52.90;;;;;;5093524;28;20095;-76
2023/06/06 08:48:02;;;;;;;3.55;2.55;;;19.60;53.00;;;;;;5059837;28;20038;-76
2023/06/06 08:50:29;;;;;;;3.33;2.35;;;19.70;52.90;;;;;;5093136;28;20036;-77
2023/06/06 08:52:56;;;;;;;3.65;2.30;;;19.80;52.90;;;;;;5093442;28;20485;-75
2023/06/06 08:55:22;;;;;;;3.42;2.35;;;19.90;52.80;;;;;;5076385;28;20023;-74
2023/06/06 08:57:48;;;;;;;3.45;2.53;;;20.00;52.80;;;;;;5076197;28;20487;-74
2023/06/06 09:00:21;;;;;;;2.88;2.10;;;20.10;52.80;;;;;;5093229;28;20040;-74
2023/06/06 09:02:52;;;;;;;4.22;2.35;;;20.20;52.70;;;;;;5093767;28;20118;-75
2023/06/06 09:05:19;;;;;;;2.78;2.22;;;20.30;52.70;;;;;;5094384;28;20054;-74
2023/06/06 09:07:52;;;;;;;4.85;2.60;;;20.40;52.70;;;;;;5093861;28;20088;-74
2023/06/06 09:10:18;;;;;;;3.55;2.17;;;20.50;52.80;;;;;;5094644;28;20028;-74
2023/06/06 09:12:45;;;;;;;4.05;2.30;;;20.60;52.70;;;;;;5075809;28;20040;-74
2023/06/06 09:15:11;;;;;;;3.70;2.45;;;20.70;52.80;;;;;;5092555;28;20392;-74
2023/06/06 09:17:37;;;;;;;4.20;2.50;;;20.80;52.80;;;;;;5092745;28;20043;-74
2023/06/06 09:20:11;;;;;;;3.15;2.30;;;20.90;52.80;;;;;;5094423;28;20028;-74
2023/06/06 09:22:46;;;;;;;3.30;2.27;;;21.00;53.00;;;;;;5093601;28;20039;-75
2023/06/06 09:25:22;;;;;;;;;;;21.10;52.90;;;;;;5092895;28;20119;-74
2023/06/06 09:27:52;;;;;;;3.25;2.33;;;21.10;52.40;;;;;;5092395;28;19935;-75
2023/06/06 09:30:26;;;;;;;3.58;2.33;;;21.30;52.40;;;;;;5093982;28;20092;-74
2023/06/06 09:33:01;;;;;;;3.40;2.03;;;21.40;52.70;;;;;;5076897;28;20028;-74
2023/06/06 09:35:36;;;;;;;2.67;1.92;;;21.50;52.70;;;;;;5093198;28;20070;-74
2023/06/06 09:38:07;;;;;;;3.38;2.20;;;21.50;52.70;;;;;;5092497;28;20052;-74
2023/06/06 09:40:50;;;;;;;3.50;2.20;;;21.60;52.70;;;;;;5093513;28;20390;-74
2023/06/06 09:43:22;;;;;;;2.75;2.22;;;21.70;52.80;;;;;;5075318;28;20052;-73
2023/06/06 09:45:52;;;;;;;4.35;2.25;;;21.80;52.60;;;;;;5092311;28;20089;-75
2023/06/06 09:48:23;;;;;;;3.78;2.40;;;21.90;52.60;;;;;;5092469;28;20482;-73
2023/06/06 09:50:49;;;;;;;3.88;2.47;;;22.00;52.70;;;;;;5092138;28;20480;-74
2023/06/06 09:53:15;;;;;;;4.05;2.33;;;22.20;52.70;;;;;;5092190;28;20042;-74
2023/06/06 09:55:42;;;;;;;3.15;2.45;;;22.20;52.50;;;;;;5074957;28;20032;-74
2023/06/06 09:58:17;;;;;;;2.42;2.10;;;22.30;52.60;;;;;;5093703;28;20036;-75
2023/06/06 10:00:45;;;;;;;4.03;2.15;;;22.40;52.70;;;;;;5093031;28;20112;-75
2023/06/06 10:03:18;;;;;;;2.47;1.80;;;22.50;52.60;;;;;;5092287;28;20028;-74
2023/06/06 10:05:48;;;;;;;3.25;2.22;;;22.60;52.70;;;;;;5093353;28;20408;-74
2023/06/06 10:08:17;;;;;;;3.95;1.95;;;22.70;52.70;;;;;;5092633;28;20411;-76
2023/06/06 10:10:46;;;;;;;3.58;2.13;;;22.80;52.70;;;;;;5074951;28;20024;-75
2023/06/06 10:13:19;;;;;;;3.35;2.00;;;22.90;52.70;;;;;;5091783;28;20028;-76
2023/06/06 10:15:46;;;;;;;3.65;2.30;;;23.00;52.60;;;;;;5093354;28;20039;-76
2023/06/06 10:18:12;;;;;;;3.00;2.08;;;23.10;52.60;;;;;;5092802;28;20028;-79
2023/06/06 10:20:44;;;;;;;2.30;1.90;;;23.20;52.60;;;;;;5093347;28;20024;-76
2023/06/06 10:23:09;;;;;;;2.80;2.08;;;23.30;52.70;;;;;;5078355;28;20055;-76
2023/06/06 10:25:37;;;;;;;3.15;2.17;;;23.40;52.50;;;;;;5096307;28;20028;-75
2023/06/06 10:28:27;;;;;;;3.60;2.25;;;23.50;52.50;;;;;;5096252;28;20088;-76
2023/06/06 10:30:58;;;;;;;6.47;2.17;;;23.60;52.70;;;;;;5096015;28;20100;-77
2023/06/06 10:33:44;;;;;;;3.20;1.95;;;23.70;52.50;;;;;;5078528;28;20070;-76
2023/06/06 10:36:17;;;;;;;3.17;2.22;;;23.80;52.60;;;;;;5095929;28;20039;-75
2023/06/06 10:39:20;;;;;;;3.22;2.25;;;23.90;52.60;;;;;;5095554;28;20032;-75
2023/06/06 10:41:54;;;;;;;3.95;2.22;;;24.00;52.70;;;;;;5096600;28;20097;-75
2023/06/06 10:44:31;;;;;;;2.88;1.95;;;24.20;52.60;;;;;;5095765;28;20036;-75
2023/06/06 10:47:32;;;;;;;2.47;1.88;;;24.20;52.50;;;;;;5095899;28;20070;-74
2023/06/06 10:50:13;;;;;;;2.22;1.80;;;24.30;52.50;;;;;;5073654;28;20538;-74
2023/06/06 10:52:54;;;;;;;3.45;1.95;;;24.40;52.50;;;;;;5096628;28;20024;-73
2023/06/06 10:55:22;;;;;;;3.97;2.22;;;24.50;52.50;;;;;;5096321;28;20035;-72
2023/06/06 10:58:06;;;;;;;4.10;2.20;;;24.60;52.40;;;;;;5096635;28;20057;-73
2023/06/06 11:00:33;;;;;;;2.70;1.90;;;24.60;52.50;;;;;;5096738;28;20105;-74
2023/06/06 11:03:19;;;;;;;2.25;1.88;;;24.70;52.40;;;;;;5095510;28;20430;-73
2023/06/06 11:06:00;;;;;;;2.67;1.98;;;24.80;52.60;;;;;;5095234;28;20115;-73
2023/06/06 11:08:33;;;;;;;2.50;1.85;;;24.80;52.70;;;;;;5096605;28;20027;-74
2023/06/06 11:11:30;;;;;;;2.85;2.03;;;24.90;52.80;;;;;;5096446;28;20030;-75
2023/06/06 11:14:03;;;;;;;2.35;1.80;;;24.90;52.90;;;;;;5078995;28;20036;-75
2023/06/06 11:16:30;;;;;;;4.30;2.20;;;25.00;52.90;;;;;;5078356;28;20491;-75
2023/06/06 11:19:03;;;;;;;3.75;2.40;;;25.10;53.00;;;;;;5094900;28;20032;-75
2023/06/06 11:21:31;;;;;;;4.13;2.58;;;25.10;53.20;;;;;;5095856;28;20028;-75
2023/06/06 11:23:58;;;;;;;3.10;2.10;;;25.10;53.10;;;;;;5078284;28;20032;-74
2023/06/06 11:26:26;;;;;;;3.00;2.00;;;25.20;53.30;;;;;;5094689;28;20036;-75
2023/06/06 11:28:55;;;;;;;3.83;2.50;;;25.20;53.40;;;;;;5078278;28;20032;-75
2023/06/06 11:31:23;;;;;;;3.45;2.30;;;25.20;53.50;;;;;;5095647;28;20040;-75
2023/06/06 11:33:50;;;;;;;3.20;2.22;;;25.30;53.70;;;;;;5094283;28;20086;-75
2023/06/06 11:36:16;;;;;;;2.65;2.00;;;25.40;53.90;;;;;;5095586;28;20373;-72
2023/06/06 11:38:42;;;;;;;2.50;2.08;;;25.40;53.90;;;;;;5094624;28;20036;-72
2023/06/06 11:41:08;;;;;;;2.95;2.05;;;25.40;54.10;;;;;;5094276;28;20036;-72
2023/06/06 11:43:34;;;;;;;4.03;2.00;;;25.40;54.20;;;;;;5095409;28;20078;-74
2023/06/06 11:46:07;;;;;;;3.88;2.15;;;25.50;54.20;;;;;;5094964;28;20074;-72
2023/06/06 11:48:36;;;;;;;2.78;2.00;;;25.50;54.30;;;;;;5077501;28;20028;-73
2023/06/06 11:51:14;;;;;;;3.65;2.35;;;25.50;54.20;;;;;;5095857;28;20028;-72
2023/06/06 11:53:41;;;;;;;2.33;1.73;;;25.50;54.30;;;;;;5077193;28;20496;-72
2023/06/06 11:56:13;;;;;;;5.00;2.40;;;25.50;54.10;;;;;;5095377;28;20044;-72
2023/06/06 11:58:40;;;;;;;3.28;2.17;;;25.60;54.10;;;;;;5095046;28;20075;-72
2023/06/06 12:01:09;;;;;;;2.58;1.95;;;25.60;54.10;;;;;;5093984;28;20186;-72
2023/06/06 12:03:37;;;;;;;2.47;1.92;;;25.60;54.10;;;;;;5095495;28;20077;-72
2023/06/06 12:06:05;;;;;;;2.67;1.80;;;25.60;54.00;;;;;;5094204;28;20024;-73
2023/06/06 12:08:35;;;;;;;2.58;1.98;;;25.60;54.00;;;;;;5095327;28;20050;-72
2023/06/06 12:11:23;;;;;;;3.75;2.13;;;25.70;54.00;;;;;;5095120;28;20119;-73
2023/06/06 12:13:49;;;;;;;2.92;2.13;;;25.70;53.90;;;;;;5093758;28;20078;-72
2023/06/06 12:16:23;;;;;;;3.75;2.38;;;25.70;53.70;;;;;;5095102;28;20064;-72
2023/06/06 12:18:49;;;;;;;2.75;2.13;;;25.70;53.60;;;;;;5093570;28;20376;-72
2023/06/06 12:21:16;;;;;;;3.95;2.55;;;25.70;53.40;;;;;;5094916;28;20054;-72
2023/06/06 12:23:46;;;;;;;2.90;2.20;;;25.70;53.30;;;;;;5094499;28;20041;-72
2023/06/06 12:26:13;;;;;;;4.00;2.58;;;25.80;53.30;;;;;;5094935;28;20032;-72
2023/06/06 12:28:56;;;;;;;2.88;2.15;;;25.80;53.10;;;;;;5077342;28;20089;-74
2023/06/06 12:31:22;;;;;;;3.90;2.13;;;25.80;53.10;;;;;;5093510;28;20037;-72
2023/06/06 12:33:47;;;;;;;2.97;2.28;;;25.80;53.00;;;;;;5094382;28;20435;-72
2023/06/06 12:36:19;;;;;;;2.58;1.95;;;25.80;53.00;;;;;;5094013;28;20028;-74
2023/06/06 12:38:57;;;;;;;2.80;2.03;;;25.80;52.90;;;;;;5094381;28;20066;-71
2023/06/06 12:41:35;;;;;;;3.10;2.13;;;25.80;52.80;;;;;;5094732;28;20028;-71
2023/06/06 12:44:06;;;;;;;3.25;2.08;;;25.80;52.60;;;;;;5093048;28;20028;-71
2023/06/06 12:46:34;;;;;;;2.22;1.95;;;25.80;52.50;;;;;;5094394;28;20040;-72
2023/06/06 12:48:59;;;;;;;3.30;2.10;;;25.80;52.40;;;;;;5093484;28;20032;-73
2023/06/06 12:51:25;;;;;;;2.70;1.98;;;25.80;52.20;;;;;;5094030;28;20248;-71
2023/06/06 12:53:51;;;;;;;3.10;2.13;;;25.90;52.20;;;;;;5093287;28;20457;-72